Portada
METAR-TAF:

METAR-TAF

Aeropuertos :

Aeropuerto de Sevilla

Sevilla, España

latitud: 37-25N, longitud: 005-54W, altitud: 34 m

Observación

El informe se hizo hace 42 minutos, a las 07:30 UTC
Viento 9 kt del este-noreste
Temperatura 26°C
Humedad 34%
Presión 1020 hPa
Visibilidad 10 km o más
sin nubes por debajo de 1500 m y sin presencia de cumulonimbus.

METAR: LEZL 230730Z 07009KT CAVOK 26/09 Q1020 NOSIG

Hora: 10:12 (08:12 UTC)

Pronóstico

El informe se hizo hace 6 horas y 12 minutos, a las 02:00 UTC
Pronóstico válido del 23 a las 03 UTC al 24 a las 03 UTC
Viento 9 kt del este-noreste
Visibilidad 10 km o más
sin nubes por debajo de 1500 m y sin presencia de cumulonimbus.

TAF: LEZL 230200Z 2303/2403 06009KT CAVOK TX38/2315Z TN21/2306Z

Observaciones y pronósticos meteorológicos de más de 4000 aeropuertos (mensajes METAR y TAF).

Los puntos amarillos y rojos representan las estaciones disponibles.

Ponga el ratón en el punto deseado para ver el nombre de la estación.

Haga clic para ver las observaciones y los pronósticos meteorológicos.

Para cambiar el mapa : haga clic en los botones verdes con una cruz de color negro para hacer un zoom, en el botón verde con un guión para alejar o en las flechas verdes para mapas adyacentes.


METAR-TAF: